sensor_id;sensor_type;location;lat;lon;timestamp;P1;durP1;ratioP1;P2;durP2;ratioP2
75639;SDS011;64233;51.486;6.332;2023-04-25T00:00:37;6.18;;;2.88;;
75639;SDS011;64233;51.486;6.332;2023-04-25T00:03:03;6.00;;;2.50;;
75639;SDS011;64233;51.486;6.332;2023-04-25T00:05:30;9.85;;;3.95;;
75639;SDS011;64233;51.486;6.332;2023-04-25T00:07:56;3.92;;;2.97;;
75639;SDS011;64233;51.486;6.332;2023-04-25T00:10:22;8.20;;;3.20;;
75639;SDS011;64233;51.486;6.332;2023-04-25T00:12:48;9.68;;;2.47;;
75639;SDS011;64233;51.486;6.332;2023-04-25T00:15:13;11.52;;;3.55;;
75639;SDS011;64233;51.486;6.332;2023-04-25T00:17:39;6.35;;;3.15;;
75639;SDS011;64233;51.486;6.332;2023-04-25T00:20:05;5.95;;;2.65;;
75639;SDS011;64233;51.486;6.332;2023-04-25T00:22:32;6.55;;;2.72;;
75639;SDS011;64233;51.486;6.332;2023-04-25T00:24:59;13.80;;;3.00;;
75639;SDS011;64233;51.486;6.332;2023-04-25T00:27:25;8.35;;;3.05;;
75639;SDS011;64233;51.486;6.332;2023-04-25T00:29:51;7.97;;;2.78;;
75639;SDS011;64233;51.486;6.332;2023-04-25T00:32:16;7.03;;;2.83;;
75639;SDS011;64233;51.486;6.332;2023-04-25T00:34:42;14.13;;;3.40;;
75639;SDS011;64233;51.486;6.332;2023-04-25T00:37:07;8.63;;;3.30;;
75639;SDS011;64233;51.486;6.332;2023-04-25T00:39:32;5.60;;;2.70;;
75639;SDS011;64233;51.486;6.332;2023-04-25T00:41:58;7.57;;;3.63;;
75639;SDS011;64233;51.486;6.332;2023-04-25T00:44:24;7.05;;;3.35;;
75639;SDS011;64233;51.486;6.332;2023-04-25T00:46:49;12.65;;;3.45;;
75639;SDS011;64233;51.486;6.332;2023-04-25T00:49:15;3.95;;;2.60;;
75639;SDS011;64233;51.486;6.332;2023-04-25T00:51:41;5.10;;;2.67;;
75639;SDS011;64233;51.486;6.332;2023-04-25T00:54:10;9.57;;;4.28;;
75639;SDS011;64233;51.486;6.332;2023-04-25T00:56:36;8.43;;;2.85;;
75639;SDS011;64233;51.486;6.332;2023-04-25T00:59:02;9.07;;;3.30;;
75639;SDS011;64233;51.486;6.332;2023-04-25T01:01:28;12.50;;;3.22;;
75639;SDS011;64233;51.486;6.332;2023-04-25T01:03:53;6.18;;;2.85;;
75639;SDS011;64233;51.486;6.332;2023-04-25T01:06:19;11.20;;;3.60;;
75639;SDS011;64233;51.486;6.332;2023-04-25T01:08:45;7.50;;;3.38;;
75639;SDS011;64233;51.486;6.332;2023-04-25T01:11:10;7.03;;;2.80;;
75639;SDS011;64233;51.486;6.332;2023-04-25T01:13:35;5.05;;;2.63;;
75639;SDS011;64233;51.486;6.332;2023-04-25T01:16:01;3.88;;;2.38;;
75639;SDS011;64233;51.486;6.332;2023-04-25T01:18:27;8.00;;;2.65;;
75639;SDS011;64233;51.486;6.332;2023-04-25T01:20:53;4.43;;;2.70;;
75639;SDS011;64233;51.486;6.332;2023-04-25T01:23:20;7.22;;;2.83;;
75639;SDS011;64233;51.486;6.332;2023-04-25T01:25:46;8.77;;;2.92;;
75639;SDS011;64233;51.486;6.332;2023-04-25T01:28:12;6.43;;;2.97;;
75639;SDS011;64233;51.486;6.332;2023-04-25T01:30:38;7.80;;;2.92;;
75639;SDS011;64233;51.486;6.332;2023-04-25T01:33:04;8.13;;;2.90;;
75639;SDS011;64233;51.486;6.332;2023-04-25T01:35:30;8.85;;;3.20;;
75639;SDS011;64233;51.486;6.332;2023-04-25T01:37:56;10.77;;;2.65;;
75639;SDS011;64233;51.486;6.332;2023-04-25T01:40:22;9.18;;;3.08;;
75639;SDS011;64233;51.486;6.332;2023-04-25T01:42:49;6.60;;;2.33;;
75639;SDS011;64233;51.486;6.332;2023-04-25T01:45:15;6.40;;;2.35;;
75639;SDS011;64233;51.486;6.332;2023-04-25T01:47:41;5.90;;;2.53;;
75639;SDS011;64233;51.486;6.332;2023-04-25T01:50:09;7.38;;;3.58;;
75639;SDS011;64233;51.486;6.332;2023-04-25T01:52:36;8.23;;;2.70;;
75639;SDS011;64233;51.486;6.332;2023-04-25T01:55:01;4.50;;;2.72;;
75639;SDS011;64233;51.486;6.332;2023-04-25T01:57:27;5.00;;;2.55;;
75639;SDS011;64233;51.486;6.332;2023-04-25T01:59:58;7.95;;;3.10;;
75639;SDS011;64233;51.486;6.332;2023-04-25T02:02:25;6.18;;;3.05;;
75639;SDS011;64233;51.486;6.332;2023-04-25T02:04:51;8.23;;;2.78;;
75639;SDS011;64233;51.486;6.332;2023-04-25T02:07:16;5.28;;;2.35;;
75639;SDS011;64233;51.486;6.332;2023-04-25T02:09:41;8.45;;;2.40;;
75639;SDS011;64233;51.486;6.332;2023-04-25T02:12:07;9.63;;;3.00;;
75639;SDS011;64233;51.486;6.332;2023-04-25T02:14:33;7.28;;;2.90;;
75639;SDS011;64233;51.486;6.332;2023-04-25T02:16:59;5.68;;;2.35;;
75639;SDS011;64233;51.486;6.332;2023-04-25T02:19:24;9.40;;;2.42;;
75639;SDS011;64233;51.486;6.332;2023-04-25T02:21:50;12.93;;;2.90;;
75639;SDS011;64233;51.486;6.332;2023-04-25T02:24:15;6.30;;;2.80;;
75639;SDS011;64233;51.486;6.332;2023-04-25T02:26:40;7.55;;;2.97;;
75639;SDS011;64233;51.486;6.332;2023-04-25T02:29:05;9.25;;;3.38;;
75639;SDS011;64233;51.486;6.332;2023-04-25T02:31:31;7.38;;;2.63;;
75639;SDS011;64233;51.486;6.332;2023-04-25T02:33:56;5.05;;;2.85;;
75639;SDS011;64233;51.486;6.332;2023-04-25T02:36:21;7.63;;;2.15;;
75639;SDS011;64233;51.486;6.332;2023-04-25T02:38:46;12.25;;;3.15;;
75639;SDS011;64233;51.486;6.332;2023-04-25T02:41:12;9.68;;;3.33;;
75639;SDS011;64233;51.486;6.332;2023-04-25T02:43:37;9.10;;;2.72;;
75639;SDS011;64233;51.486;6.332;2023-04-25T02:46:03;10.55;;;3.13;;
75639;SDS011;64233;51.486;6.332;2023-04-25T02:48:28;13.25;;;3.15;;
75639;SDS011;64233;51.486;6.332;2023-04-25T02:50:54;11.07;;;2.95;;
75639;SDS011;64233;51.486;6.332;2023-04-25T02:53:19;5.97;;;2.70;;
75639;SDS011;64233;51.486;6.332;2023-04-25T02:55:44;15.27;;;3.65;;
75639;SDS011;64233;51.486;6.332;2023-04-25T02:58:10;7.20;;;3.15;;
75639;SDS011;64233;51.486;6.332;2023-04-25T03:00:35;3.33;;;2.05;;
75639;SDS011;64233;51.486;6.332;2023-04-25T03:03:01;17.50;;;2.70;;
75639;SDS011;64233;51.486;6.332;2023-04-25T03:05:26;7.80;;;2.80;;
75639;SDS011;64233;51.486;6.332;2023-04-25T03:07:51;11.45;;;2.80;;
75639;SDS011;64233;51.486;6.332;2023-04-25T03:10:17;6.53;;;2.55;;
75639;SDS011;64233;51.486;6.332;2023-04-25T03:12:42;6.28;;;3.20;;
75639;SDS011;64233;51.486;6.332;2023-04-25T03:15:07;6.35;;;2.78;;
75639;SDS011;64233;51.486;6.332;2023-04-25T03:17:33;9.38;;;2.53;;
75639;SDS011;64233;51.486;6.332;2023-04-25T03:19:58;9.57;;;3.20;;
75639;SDS011;64233;51.486;6.332;2023-04-25T03:22:24;7.88;;;2.55;;
75639;SDS011;64233;51.486;6.332;2023-04-25T03:24:49;6.78;;;2.70;;
75639;SDS011;64233;51.486;6.332;2023-04-25T03:27:15;6.70;;;2.25;;
75639;SDS011;64233;51.486;6.332;2023-04-25T03:29:40;6.47;;;3.15;;
75639;SDS011;64233;51.486;6.332;2023-04-25T03:32:05;4.82;;;2.38;;
75639;SDS011;64233;51.486;6.332;2023-04-25T03:34:31;5.10;;;2.97;;
75639;SDS011;64233;51.486;6.332;2023-04-25T03:36:56;9.18;;;3.47;;
75639;SDS011;64233;51.486;6.332;2023-04-25T03:39:21;6.53;;;2.70;;
75639;SDS011;64233;51.486;6.332;2023-04-25T03:41:46;9.23;;;2.92;;
75639;SDS011;64233;51.486;6.332;2023-04-25T03:44:12;8.10;;;3.58;;
75639;SDS011;64233;51.486;6.332;2023-04-25T03:46:38;12.57;;;3.50;;
75639;SDS011;64233;51.486;6.332;2023-04-25T03:49:04;5.22;;;3.22;;
75639;SDS011;64233;51.486;6.332;2023-04-25T03:51:29;9.07;;;3.25;;
75639;SDS011;64233;51.486;6.332;2023-04-25T03:53:55;7.05;;;3.65;;
75639;SDS011;64233;51.486;6.332;2023-04-25T03:56:21;5.20;;;2.65;;
75639;SDS011;64233;51.486;6.332;2023-04-25T03:58:47;8.00;;;3.00;;
75639;SDS011;64233;51.486;6.332;2023-04-25T04:01:12;9.77;;;3.42;;
75639;SDS011;64233;51.486;6.332;2023-04-25T04:03:38;9.95;;;2.75;;
75639;SDS011;64233;51.486;6.332;2023-04-25T04:06:03;10.73;;;2.80;;
75639;SDS011;64233;51.486;6.332;2023-04-25T04:08:30;6.40;;;3.30;;
75639;SDS011;64233;51.486;6.332;2023-04-25T04:10:56;14.43;;;3.60;;
75639;SDS011;64233;51.486;6.332;2023-04-25T04:13:22;11.18;;;3.33;;
75639;SDS011;64233;51.486;6.332;2023-04-25T04:15:48;8.45;;;4.15;;
75639;SDS011;64233;51.486;6.332;2023-04-25T04:18:13;5.57;;;2.22;;
75639;SDS011;64233;51.486;6.332;2023-04-25T04:20:38;9.23;;;3.25;;
75639;SDS011;64233;51.486;6.332;2023-04-25T04:23:04;11.90;;;5.03;;
75639;SDS011;64233;51.486;6.332;2023-04-25T04:25:30;8.32;;;3.13;;
75639;SDS011;64233;51.486;6.332;2023-04-25T04:27:55;6.97;;;3.10;;
75639;SDS011;64233;51.486;6.332;2023-04-25T04:30:21;7.28;;;3.22;;
75639;SDS011;64233;51.486;6.332;2023-04-25T04:32:49;6.25;;;3.00;;
75639;SDS011;64233;51.486;6.332;2023-04-25T04:35:14;9.13;;;5.00;;
75639;SDS011;64233;51.486;6.332;2023-04-25T04:37:40;9.48;;;2.72;;
75639;SDS011;64233;51.486;6.332;2023-04-25T04:40:05;4.93;;;2.88;;
75639;SDS011;64233;51.486;6.332;2023-04-25T04:42:31;8.70;;;3.47;;
75639;SDS011;64233;51.486;6.332;2023-04-25T04:44:57;8.88;;;3.25;;
75639;SDS011;64233;51.486;6.332;2023-04-25T04:47:23;6.72;;;3.60;;
75639;SDS011;64233;51.486;6.332;2023-04-25T04:49:49;10.77;;;4.13;;
75639;SDS011;64233;51.486;6.332;2023-04-25T04:52:14;11.52;;;3.58;;
75639;SDS011;64233;51.486;6.332;2023-04-25T04:54:39;9.63;;;3.85;;
75639;SDS011;64233;51.486;6.332;2023-04-25T04:57:04;8.52;;;3.85;;
75639;SDS011;64233;51.486;6.332;2023-04-25T04:59:30;10.60;;;3.67;;
75639;SDS011;64233;51.486;6.332;2023-04-25T05:01:55;10.02;;;3.15;;
75639;SDS011;64233;51.486;6.332;2023-04-25T05:04:20;9.45;;;4.07;;
75639;SDS011;64233;51.486;6.332;2023-04-25T05:06:46;11.40;;;4.10;;
75639;SDS011;64233;51.486;6.332;2023-04-25T05:09:11;10.40;;;3.78;;
75639;SDS011;64233;51.486;6.332;2023-04-25T05:11:36;9.77;;;3.28;;
75639;SDS011;64233;51.486;6.332;2023-04-25T05:14:01;8.63;;;2.95;;
75639;SDS011;64233;51.486;6.332;2023-04-25T05:16:27;13.75;;;3.53;;
75639;SDS011;64233;51.486;6.332;2023-04-25T05:18:52;7.75;;;3.05;;
75639;SDS011;64233;51.486;6.332;2023-04-25T05:21:17;8.18;;;3.50;;
75639;SDS011;64233;51.486;6.332;2023-04-25T05:23:42;11.95;;;4.35;;
75639;SDS011;64233;51.486;6.332;2023-04-25T05:26:08;11.63;;;4.05;;
75639;SDS011;64233;51.486;6.332;2023-04-25T05:28:38;12.98;;;3.70;;
75639;SDS011;64233;51.486;6.332;2023-04-25T05:31:04;16.52;;;4.18;;
75639;SDS011;64233;51.486;6.332;2023-04-25T05:33:30;10.65;;;3.50;;
75639;SDS011;64233;51.486;6.332;2023-04-25T05:35:55;9.98;;;3.80;;
75639;SDS011;64233;51.486;6.332;2023-04-25T05:38:20;6.95;;;3.70;;
75639;SDS011;64233;51.486;6.332;2023-04-25T05:40:45;13.45;;;3.15;;
75639;SDS011;64233;51.486;6.332;2023-04-25T05:43:11;7.95;;;3.35;;
75639;SDS011;64233;51.486;6.332;2023-04-25T05:45:36;9.73;;;3.13;;
75639;SDS011;64233;51.486;6.332;2023-04-25T05:48:01;6.93;;;2.72;;
75639;SDS011;64233;51.486;6.332;2023-04-25T05:50:27;8.95;;;3.35;;
75639;SDS011;64233;51.486;6.332;2023-04-25T05:52:53;12.50;;;2.88;;
75639;SDS011;64233;51.486;6.332;2023-04-25T05:55:18;7.20;;;3.50;;
75639;SDS011;64233;51.486;6.332;2023-04-25T05:57:43;10.50;;;3.72;;
75639;SDS011;64233;51.486;6.332;2023-04-25T06:00:10;8.85;;;3.60;;
75639;SDS011;64233;51.486;6.332;2023-04-25T06:02:37;7.78;;;3.50;;
75639;SDS011;64233;51.486;6.332;2023-04-25T06:05:02;11.20;;;3.47;;
75639;SDS011;64233;51.486;6.332;2023-04-25T06:07:28;9.82;;;2.78;;
75639;SDS011;64233;51.486;6.332;2023-04-25T06:09:54;12.88;;;3.75;;
75639;SDS011;64233;51.486;6.332;2023-04-25T06:12:20;9.85;;;2.97;;
75639;SDS011;64233;51.486;6.332;2023-04-25T06:14:45;9.18;;;3.90;;
75639;SDS011;64233;51.486;6.332;2023-04-25T06:17:10;6.68;;;3.88;;
75639;SDS011;64233;51.486;6.332;2023-04-25T06:19:36;4.85;;;2.65;;
75639;SDS011;64233;51.486;6.332;2023-04-25T06:22:01;8.63;;;3.40;;
75639;SDS011;64233;51.486;6.332;2023-04-25T06:24:27;4.07;;;2.67;;
75639;SDS011;64233;51.486;6.332;2023-04-25T06:26:53;5.95;;;3.33;;
75639;SDS011;64233;51.486;6.332;2023-04-25T06:29:18;6.65;;;2.65;;
75639;SDS011;64233;51.486;6.332;2023-04-25T06:31:43;7.38;;;2.67;;
75639;SDS011;64233;51.486;6.332;2023-04-25T06:34:08;7.35;;;2.72;;
75639;SDS011;64233;51.486;6.332;2023-04-25T06:36:34;10.07;;;3.10;;
75639;SDS011;64233;51.486;6.332;2023-04-25T06:38:59;5.72;;;2.95;;
75639;SDS011;64233;51.486;6.332;2023-04-25T06:41:24;7.15;;;2.08;;
75639;SDS011;64233;51.486;6.332;2023-04-25T06:43:50;5.53;;;1.38;;
75639;SDS011;64233;51.486;6.332;2023-04-25T06:46:15;3.75;;;1.27;;
75639;SDS011;64233;51.486;6.332;2023-04-25T06:48:40;11.40;;;2.70;;
75639;SDS011;64233;51.486;6.332;2023-04-25T06:51:06;9.48;;;2.72;;
75639;SDS011;64233;51.486;6.332;2023-04-25T06:53:31;14.32;;;2.67;;
75639;SDS011;64233;51.486;6.332;2023-04-25T06:55:56;18.88;;;3.72;;
75639;SDS011;64233;51.486;6.332;2023-04-25T06:58:21;10.10;;;2.85;;
75639;SDS011;64233;51.486;6.332;2023-04-25T07:00:47;4.88;;;1.98;;
75639;SDS011;64233;51.486;6.332;2023-04-25T07:03:12;10.75;;;3.00;;
75639;SDS011;64233;51.486;6.332;2023-04-25T07:05:37;13.23;;;2.83;;
75639;SDS011;64233;51.486;6.332;2023-04-25T07:08:03;5.30;;;2.75;;
75639;SDS011;64233;51.486;6.332;2023-04-25T07:10:28;11.98;;;2.90;;
75639;SDS011;64233;51.486;6.332;2023-04-25T07:12:54;7.07;;;1.85;;
75639;SDS011;64233;51.486;6.332;2023-04-25T07:15:19;8.70;;;2.15;;
75639;SDS011;64233;51.486;6.332;2023-04-25T07:17:45;6.47;;;2.88;;
75639;SDS011;64233;51.486;6.332;2023-04-25T07:20:10;5.68;;;1.67;;
75639;SDS011;64233;51.486;6.332;2023-04-25T07:22:35;8.50;;;2.47;;
75639;SDS011;64233;51.486;6.332;2023-04-25T07:25:01;5.63;;;1.70;;
75639;SDS011;64233;51.486;6.332;2023-04-25T07:27:26;3.70;;;1.85;;
75639;SDS011;64233;51.486;6.332;2023-04-25T07:29:52;3.67;;;1.20;;
75639;SDS011;64233;51.486;6.332;2023-04-25T07:32:17;3.35;;;1.48;;
75639;SDS011;64233;51.486;6.332;2023-04-25T07:34:43;3.22;;;1.10;;
75639;SDS011;64233;51.486;6.332;2023-04-25T07:37:08;2.40;;;2.13;;
75639;SDS011;64233;51.486;6.332;2023-04-25T07:39:33;5.03;;;1.90;;
75639;SDS011;64233;51.486;6.332;2023-04-25T07:41:59;7.72;;;2.20;;
75639;SDS011;64233;51.486;6.332;2023-04-25T07:44:25;3.00;;;1.00;;
75639;SDS011;64233;51.486;6.332;2023-04-25T07:46:50;8.63;;;1.73;;
75639;SDS011;64233;51.486;6.332;2023-04-25T07:49:16;7.38;;;2.85;;
75639;SDS011;64233;51.486;6.332;2023-04-25T07:51:41;16.58;;;2.10;;
75639;SDS011;64233;51.486;6.332;2023-04-25T07:54:08;8.40;;;2.13;;
75639;SDS011;64233;51.486;6.332;2023-04-25T07:56:34;2.72;;;1.20;;
75639;SDS011;64233;51.486;6.332;2023-04-25T07:59:00;3.58;;;1.50;;
75639;SDS011;64233;51.486;6.332;2023-04-25T08:01:25;7.63;;;1.48;;
75639;SDS011;64233;51.486;6.332;2023-04-25T08:03:51;1.75;;;1.05;;
75639;SDS011;64233;51.486;6.332;2023-04-25T08:06:17;9.98;;;2.15;;
75639;SDS011;64233;51.486;6.332;2023-04-25T08:08:42;8.18;;;1.33;;
75639;SDS011;64233;51.486;6.332;2023-04-25T08:11:08;3.65;;;1.05;;
75639;SDS011;64233;51.486;6.332;2023-04-25T08:13:33;7.85;;;2.03;;
75639;SDS011;64233;51.486;6.332;2023-04-25T08:15:58;7.72;;;2.28;;
75639;SDS011;64233;51.486;6.332;2023-04-25T08:18:23;2.65;;;1.10;;
75639;SDS011;64233;51.486;6.332;2023-04-25T08:20:49;1.98;;;1.77;;
75639;SDS011;64233;51.486;6.332;2023-04-25T08:23:14;8.32;;;1.70;;
75639;SDS011;64233;51.486;6.332;2023-04-25T08:25:39;2.72;;;1.48;;
75639;SDS011;64233;51.486;6.332;2023-04-25T08:28:05;4.38;;;1.30;;
75639;SDS011;64233;51.486;6.332;2023-04-25T08:30:31;1.83;;;0.88;;
75639;SDS011;64233;51.486;6.332;2023-04-25T08:32:56;1.35;;;1.15;;
75639;SDS011;64233;51.486;6.332;2023-04-25T08:35:21;7.85;;;1.88;;
75639;SDS011;64233;51.486;6.332;2023-04-25T08:37:47;2.13;;;0.90;;
75639;SDS011;64233;51.486;6.332;2023-04-25T08:40:14;3.85;;;1.15;;
75639;SDS011;64233;51.486;6.332;2023-04-25T08:42:41;11.20;;;1.40;;
75639;SDS011;64233;51.486;6.332;2023-04-25T08:45:08;4.30;;;1.38;;
75639;SDS011;64233;51.486;6.332;2023-04-25T08:47:34;4.18;;;1.45;;
75639;SDS011;64233;51.486;6.332;2023-04-25T08:49:59;4.78;;;1.10;;
75639;SDS011;64233;51.486;6.332;2023-04-25T08:52:28;3.45;;;1.13;;
75639;SDS011;64233;51.486;6.332;2023-04-25T08:54:57;4.10;;;1.20;;
75639;SDS011;64233;51.486;6.332;2023-04-25T08:57:25;6.30;;;1.92;;
75639;SDS011;64233;51.486;6.332;2023-04-25T08:59:51;2.40;;;0.68;;
75639;SDS011;64233;51.486;6.332;2023-04-25T09:02:17;4.95;;;1.67;;
75639;SDS011;64233;51.486;6.332;2023-04-25T09:04:45;4.78;;;1.15;;
75639;SDS011;64233;51.486;6.332;2023-04-25T09:07:11;3.78;;;1.58;;
75639;SDS011;64233;51.486;6.332;2023-04-25T09:09:36;5.35;;;1.23;;
75639;SDS011;64233;51.486;6.332;2023-04-25T09:12:02;3.83;;;1.23;;
75639;SDS011;64233;51.486;6.332;2023-04-25T09:14:27;3.53;;;1.90;;
75639;SDS011;64233;51.486;6.332;2023-04-25T09:19:24;4.03;;;1.83;;
75639;SDS011;64233;51.486;6.332;2023-04-25T09:21:55;4.63;;;0.93;;
75639;SDS011;64233;51.486;6.332;2023-04-25T09:24:34;7.45;;;1.23;;
75639;SDS011;64233;51.486;6.332;2023-04-25T09:27:09;10.35;;;2.33;;
75639;SDS011;64233;51.486;6.332;2023-04-25T09:29:37;5.10;;;2.28;;
75639;SDS011;64233;51.486;6.332;2023-04-25T09:32:14;7.13;;;1.45;;
75639;SDS011;64233;51.486;6.332;2023-04-25T09:34:46;4.78;;;1.33;;
75639;SDS011;64233;51.486;6.332;2023-04-25T09:37:19;2.03;;;1.17;;
75639;SDS011;64233;51.486;6.332;2023-04-25T09:39:49;4.35;;;0.75;;
75639;SDS011;64233;51.486;6.332;2023-04-25T09:42:16;5.45;;;1.17;;
75639;SDS011;64233;51.486;6.332;2023-04-25T09:44:45;7.07;;;1.52;;
75639;SDS011;64233;51.486;6.332;2023-04-25T09:47:12;6.60;;;1.70;;
75639;SDS011;64233;51.486;6.332;2023-04-25T09:49:40;4.47;;;1.42;;
75639;SDS011;64233;51.486;6.332;2023-04-25T09:52:13;7.38;;;1.38;;
75639;SDS011;64233;51.486;6.332;2023-04-25T09:54:40;2.58;;;1.13;;
75639;SDS011;64233;51.486;6.332;2023-04-25T09:57:22;2.85;;;1.27;;
75639;SDS011;64233;51.486;6.332;2023-04-25T09:59:49;2.35;;;1.25;;
75639;SDS011;64233;51.486;6.332;2023-04-25T10:02:20;6.25;;;1.60;;
75639;SDS011;64233;51.486;6.332;2023-04-25T10:04:48;5.50;;;1.65;;
75639;SDS011;64233;51.486;6.332;2023-04-25T10:07:18;2.72;;;1.35;;
75639;SDS011;64233;51.486;6.332;2023-04-25T10:09:47;5.20;;;1.50;;
75639;SDS011;64233;51.486;6.332;2023-04-25T10:12:15;3.83;;;1.48;;
75639;SDS011;64233;51.486;6.332;2023-04-25T10:14:41;9.05;;;2.33;;
75639;SDS011;64233;51.486;6.332;2023-04-25T10:17:08;7.65;;;2.28;;
75639;SDS011;64233;51.486;6.332;2023-04-25T10:19:35;5.57;;;1.73;;
75639;SDS011;64233;51.486;6.332;2023-04-25T10:22:07;4.78;;;1.63;;
75639;SDS011;64233;51.486;6.332;2023-04-25T10:24:38;2.72;;;1.58;;
75639;SDS011;64233;51.486;6.332;2023-04-25T10:27:04;4.47;;;1.27;;
75639;SDS011;64233;51.486;6.332;2023-04-25T10:29:31;3.60;;;1.30;;
75639;SDS011;64233;51.486;6.332;2023-04-25T10:31:56;6.03;;;1.15;;
75639;SDS011;64233;51.486;6.332;2023-04-25T10:34:38;2.08;;;0.93;;
75639;SDS011;64233;51.486;6.332;2023-04-25T10:37:05;6.13;;;1.92;;
75639;SDS011;64233;51.486;6.332;2023-04-25T10:39:33;5.15;;;1.88;;
75639;SDS011;64233;51.486;6.332;2023-04-25T10:41:59;8.05;;;1.33;;
75639;SDS011;64233;51.486;6.332;2023-04-25T10:44:30;4.20;;;2.03;;
75639;SDS011;64233;51.486;6.332;2023-04-25T10:46:56;7.63;;;1.35;;
75639;SDS011;64233;51.486;6.332;2023-04-25T10:49:30;5.35;;;1.30;;
75639;SDS011;64233;51.486;6.332;2023-04-25T10:52:14;1.92;;;1.13;;
75639;SDS011;64233;51.486;6.332;2023-04-25T10:54:51;4.07;;;1.90;;
75639;SDS011;64233;51.486;6.332;2023-04-25T10:57:26;3.65;;;1.10;;
75639;SDS011;64233;51.486;6.332;2023-04-25T11:02:42;4.28;;;1.40;;
75639;SDS011;64233;51.486;6.332;2023-04-25T11:05:10;4.45;;;2.25;;
75639;SDS011;64233;51.486;6.332;2023-04-25T11:07:51;9.05;;;1.95;;
75639;SDS011;64233;51.486;6.332;2023-04-25T11:10:28;6.03;;;1.40;;
75639;SDS011;64233;51.486;6.332;2023-04-25T11:12:55;5.68;;;1.17;;
75639;SDS011;64233;51.486;6.332;2023-04-25T11:15:21;6.10;;;1.15;;
75639;SDS011;64233;51.486;6.332;2023-04-25T11:17:46;6.00;;;0.88;;
75639;SDS011;64233;51.486;6.332;2023-04-25T11:20:12;3.22;;;1.00;;
75639;SDS011;64233;51.486;6.332;2023-04-25T11:22:39;2.83;;;0.93;;
75639;SDS011;64233;51.486;6.332;2023-04-25T11:25:08;4.75;;;1.25;;
75639;SDS011;64233;51.486;6.332;2023-04-25T11:27:34;5.40;;;1.15;;
75639;SDS011;64233;51.486;6.332;2023-04-25T11:30:15;5.28;;;1.30;;
75639;SDS011;64233;51.486;6.332;2023-04-25T11:32:41;7.03;;;1.98;;
75639;SDS011;64233;51.486;6.332;2023-04-25T11:35:08;3.13;;;0.77;;
75639;SDS011;64233;51.486;6.332;2023-04-25T11:37:34;3.20;;;1.05;;
75639;SDS011;64233;51.486;6.332;2023-04-25T11:39:59;8.15;;;1.30;;
75639;SDS011;64233;51.486;6.332;2023-04-25T11:42:25;1.98;;;1.00;;
75639;SDS011;64233;51.486;6.332;2023-04-25T11:44:51;3.72;;;1.25;;
75639;SDS011;64233;51.486;6.332;2023-04-25T11:47:17;2.60;;;1.25;;
75639;SDS011;64233;51.486;6.332;2023-04-25T11:49:42;4.32;;;1.33;;
75639;SDS011;64233;51.486;6.332;2023-04-25T11:52:07;5.63;;;1.40;;
75639;SDS011;64233;51.486;6.332;2023-04-25T11:54:35;1.60;;;1.00;;
75639;SDS011;64233;51.486;6.332;2023-04-25T11:57:01;7.07;;;2.15;;
75639;SDS011;64233;51.486;6.332;2023-04-25T11:59:26;3.80;;;1.00;;
75639;SDS011;64233;51.486;6.332;2023-04-25T12:01:52;5.55;;;1.40;;
75639;SDS011;64233;51.486;6.332;2023-04-25T12:04:18;4.13;;;1.48;;
75639;SDS011;64233;51.486;6.332;2023-04-25T12:06:46;3.40;;;1.05;;
75639;SDS011;64233;51.486;6.332;2023-04-25T12:09:12;8.30;;;1.65;;
75639;SDS011;64233;51.486;6.332;2023-04-25T12:11:42;1.20;;;1.05;;
75639;SDS011;64233;51.486;6.332;2023-04-25T12:14:08;3.90;;;2.00;;
75639;SDS011;64233;51.486;6.332;2023-04-25T12:16:43;3.10;;;1.40;;
75639;SDS011;64233;51.486;6.332;2023-04-25T12:19:09;4.35;;;2.40;;
75639;SDS011;64233;51.486;6.332;2023-04-25T12:21:39;4.95;;;1.02;;
75639;SDS011;64233;51.486;6.332;2023-04-25T12:24:11;4.30;;;1.33;;
75639;SDS011;64233;51.486;6.332;2023-04-25T12:27:14;3.07;;;0.80;;
75639;SDS011;64233;51.486;6.332;2023-04-25T12:29:33;2.53;;;0.75;;
75639;SDS011;64233;51.486;6.332;2023-04-25T12:31:59;3.65;;;1.23;;
75639;SDS011;64233;51.486;6.332;2023-04-25T12:34:26;4.55;;;1.48;;
75639;SDS011;64233;51.486;6.332;2023-04-25T12:36:52;3.75;;;0.93;;
75639;SDS011;64233;51.486;6.332;2023-04-25T12:39:18;2.13;;;0.73;;
75639;SDS011;64233;51.486;6.332;2023-04-25T12:41:46;5.85;;;1.00;;
75639;SDS011;64233;51.486;6.332;2023-04-25T12:44:12;3.22;;;1.92;;
75639;SDS011;64233;51.486;6.332;2023-04-25T12:46:38;3.53;;;0.98;;
75639;SDS011;64233;51.486;6.332;2023-04-25T12:49:05;4.38;;;0.95;;
75639;SDS011;64233;51.486;6.332;2023-04-25T12:51:32;1.83;;;0.95;;
75639;SDS011;64233;51.486;6.332;2023-04-25T12:53:58;0.80;;;0.80;;
75639;SDS011;64233;51.486;6.332;2023-04-25T12:56:25;3.88;;;1.63;;
75639;SDS011;64233;51.486;6.332;2023-04-25T12:58:51;1.70;;;0.80;;
75639;SDS011;64233;51.486;6.332;2023-04-25T13:01:17;1.23;;;0.80;;
75639;SDS011;64233;51.486;6.332;2023-04-25T13:03:42;6.00;;;1.33;;
75639;SDS011;64233;51.486;6.332;2023-04-25T13:06:08;2.28;;;1.10;;
75639;SDS011;64233;51.486;6.332;2023-04-25T13:08:33;2.17;;;1.17;;
75639;SDS011;64233;51.486;6.332;2023-04-25T13:10:59;1.17;;;0.85;;
75639;SDS011;64233;51.486;6.332;2023-04-25T13:13:25;1.60;;;0.70;;
75639;SDS011;64233;51.486;6.332;2023-04-25T13:15:52;1.58;;;1.00;;
75639;SDS011;64233;51.486;6.332;2023-04-25T13:18:17;1.35;;;1.02;;
75639;SDS011;64233;51.486;6.332;2023-04-25T13:20:43;3.30;;;0.90;;
75639;SDS011;64233;51.486;6.332;2023-04-25T13:23:09;4.75;;;0.90;;
75639;SDS011;64233;51.486;6.332;2023-04-25T13:25:34;3.42;;;0.90;;
75639;SDS011;64233;51.486;6.332;2023-04-25T13:28:00;4.72;;;1.08;;
75639;SDS011;64233;51.486;6.332;2023-04-25T13:30:25;5.00;;;1.42;;
75639;SDS011;64233;51.486;6.332;2023-04-25T13:32:50;2.03;;;0.85;;
75639;SDS011;64233;51.486;6.332;2023-04-25T13:35:16;2.35;;;1.05;;
75639;SDS011;64233;51.486;6.332;2023-04-25T13:37:42;2.10;;;0.70;;
75639;SDS011;64233;51.486;6.332;2023-04-25T13:40:08;4.57;;;1.13;;
75639;SDS011;64233;51.486;6.332;2023-04-25T13:42:36;3.75;;;0.88;;
75639;SDS011;64233;51.486;6.332;2023-04-25T13:45:02;4.53;;;1.75;;
75639;SDS011;64233;51.486;6.332;2023-04-25T13:47:28;2.30;;;0.80;;
75639;SDS011;64233;51.486;6.332;2023-04-25T13:49:54;1.45;;;0.80;;
75639;SDS011;64233;51.486;6.332;2023-04-25T13:52:19;1.35;;;0.63;;
75639;SDS011;64233;51.486;6.332;2023-04-25T13:54:44;3.17;;;1.10;;
75639;SDS011;64233;51.486;6.332;2023-04-25T13:57:10;3.75;;;1.10;;
75639;SDS011;64233;51.486;6.332;2023-04-25T13:59:36;4.45;;;1.00;;
75639;SDS011;64233;51.486;6.332;2023-04-25T14:02:01;1.70;;;0.75;;
75639;SDS011;64233;51.486;6.332;2023-04-25T14:04:27;3.58;;;0.88;;
75639;SDS011;64233;51.486;6.332;2023-04-25T14:06:52;0.85;;;0.70;;
75639;SDS011;64233;51.486;6.332;2023-04-25T14:09:18;6.00;;;0.65;;
75639;SDS011;64233;51.486;6.332;2023-04-25T14:11:45;1.25;;;0.77;;
75639;SDS011;64233;51.486;6.332;2023-04-25T14:14:11;3.50;;;0.80;;
75639;SDS011;64233;51.486;6.332;2023-04-25T14:16:37;2.38;;;1.65;;
75639;SDS011;64233;51.486;6.332;2023-04-25T14:19:02;2.92;;;1.05;;
75639;SDS011;64233;51.486;6.332;2023-04-25T14:21:28;2.42;;;0.65;;
75639;SDS011;64233;51.486;6.332;2023-04-25T14:23:54;3.85;;;1.10;;
75639;SDS011;64233;51.486;6.332;2023-04-25T14:26:19;6.32;;;1.40;;
75639;SDS011;64233;51.486;6.332;2023-04-25T14:28:45;6.10;;;2.15;;
75639;SDS011;64233;51.486;6.332;2023-04-25T14:31:10;5.57;;;1.33;;
75639;SDS011;64233;51.486;6.332;2023-04-25T14:33:36;2.88;;;0.98;;
75639;SDS011;64233;51.486;6.332;2023-04-25T14:36:04;2.00;;;1.00;;
75639;SDS011;64233;51.486;6.332;2023-04-25T14:38:30;1.50;;;1.00;;
75639;SDS011;64233;51.486;6.332;2023-04-25T14:40:55;1.13;;;0.70;;
75639;SDS011;64233;51.486;6.332;2023-04-25T14:43:20;5.75;;;1.58;;
75639;SDS011;64233;51.486;6.332;2023-04-25T14:45:45;2.70;;;1.15;;